Time;durP1;ratioP1;P1;durP2;ratioP2;P2;SDS_P1;SDS_P2;PMS_P1;PMS_P2;Temp;Humidity;BMP_temperature;BMP_pressure;BME280_temperature;BME280_humidity;BME280_pressure;Samples;Min_cycle;Max_cycle;Signal;HPM_P1;HPM_P2
2022/02/22 00:01:33;;;;;;;9.03;4.55;;;;;;;3.58;70.41;96706.73;1747888;81;21095;-61
2022/02/22 00:03:59;;;;;;;5.83;4.17;;;;;;;3.52;70.47;96711.27;1748051;81;21412;-64
2022/02/22 00:06:26;;;;;;;6.97;4.00;;;;;;;3.46;70.63;96712.38;1748150;81;20929;-62
2022/02/22 00:08:52;;;;;;;6.90;3.77;;;;;;;3.42;70.68;96707.36;1747975;81;21388;-62
2022/02/22 00:11:19;;;;;;;5.08;3.33;;;;;;;3.37;70.71;96702.09;1748004;82;20897;-61
2022/02/22 00:13:47;;;;;;;6.10;3.72;;;;;;;3.33;70.77;96699.75;1747964;82;21109;-64
2022/02/22 00:16:14;;;;;;;5.83;3.70;;;;;;;3.31;71.07;96704.53;1768920;81;20884;-61
2022/02/22 00:18:41;;;;;;;6.22;3.15;;;;;;;3.32;70.61;96700.83;1769699;81;20915;-62
2022/02/22 00:21:08;;;;;;;5.47;3.72;;;;;;;3.36;70.33;96707.94;1769726;81;20983;-65
2022/02/22 00:23:34;;;;;;;5.58;3.45;;;;;;;3.38;70.25;96710.30;1770040;80;20884;-64
2022/02/22 00:26:01;;;;;;;5.17;3.15;;;;;;;3.38;69.89;96707.66;1769828;81;21068;-66
2022/02/22 00:28:28;;;;;;;8.05;3.62;;;;;;;3.35;69.88;96706.34;1769682;81;20971;-63
2022/02/22 00:30:55;;;;;;;7.20;3.58;;;;;;;3.32;69.75;96704.24;1769951;81;21415;-66
2022/02/22 00:33:22;;;;;;;6.08;3.50;;;;;;;3.27;69.70;96706.15;1769726;81;20877;-65
2022/02/22 00:35:49;;;;;;;6.20;3.25;;;;;;;3.22;69.74;96704.85;1769669;81;20940;-63
2022/02/22 00:38:17;;;;;;;4.78;3.50;;;;;;;3.15;70.07;96706.48;1769686;81;21133;-64
2022/02/22 00:40:43;;;;;;;7.35;3.75;;;;;;;3.09;70.47;96699.63;1769677;81;20899;-61
2022/02/22 00:43:10;;;;;;;6.80;3.75;;;;;;;2.98;70.72;96693.34;1769638;81;20923;-61
2022/02/22 00:45:37;;;;;;;6.85;4.03;;;;;;;2.88;71.19;96692.06;1769598;80;20943;-61
2022/02/22 00:48:04;;;;;;;6.35;3.95;;;;;;;2.77;71.45;96686.05;1769757;81;20908;-62
2022/02/22 00:50:32;;;;;;;5.83;3.47;;;;;;;2.63;71.77;96685.85;1769807;81;21106;-64
2022/02/22 00:52:59;;;;;;;5.85;3.70;;;;;;;2.54;71.99;96690.09;1769676;81;20903;-66
2022/02/22 00:55:25;;;;;;;5.85;3.90;;;;;;;2.49;72.31;96682.20;1769911;81;21002;-65
2022/02/22 00:57:52;;;;;;;8.13;4.28;;;;;;;2.45;72.55;96686.42;1769853;80;20904;-62
2022/02/22 01:00:19;;;;;;;7.92;3.87;;;;;;;2.41;72.79;96685.91;1769632;81;20938;-65
2022/02/22 01:02:48;;;;;;;7.08;3.62;;;;;;;2.39;72.90;96692.00;1769689;80;20916;-62
2022/02/22 01:05:14;;;;;;;6.83;4.15;;;;;;;2.33;73.27;96692.54;1769889;80;21364;-62
2022/02/22 01:07:41;;;;;;;7.45;3.80;;;;;;;2.28;73.41;96688.62;1769716;81;20953;-63
2022/02/22 01:10:09;;;;;;;11.65;5.83;;;;;;;2.24;73.47;96686.23;1769881;80;20933;-66
2022/02/22 01:12:36;;;;;;;11.93;7.37;;;;;;;2.25;73.64;96686.50;1769629;81;21022;-65
2022/02/22 01:15:05;;;;;;;14.68;8.85;;;;;;;2.23;73.66;96685.98;1769660;81;21169;-63
2022/02/22 01:17:33;;;;;;;17.27;9.68;;;;;;;2.15;73.74;96683.88;1769559;80;20915;-66
2022/02/22 01:20:05;;;;;;;12.40;8.10;;;;;;;2.06;73.97;96683.64;1769998;81;21551;-65
2022/02/22 01:22:31;;;;;;;11.03;5.87;;;;;;;2.00;74.08;96694.48;1769666;78;20896;-66
2022/02/22 01:24:58;;;;;;;9.58;6.55;;;;;;;1.95;74.30;96695.81;1770024;80;20940;-62
2022/02/22 01:27:24;;;;;;;11.48;7.00;;;;;;;1.90;74.54;96694.49;1769715;81;21121;-64
2022/02/22 01:29:51;;;;;;;11.95;7.22;;;;;;;1.86;74.75;96696.09;1769926;81;20869;-67
2022/02/22 01:32:17;;;;;;;11.05;6.50;;;;;;;1.86;75.05;96698.73;1769941;80;21461;-67
2022/02/22 01:34:44;;;;;;;19.85;12.70;;;;;;;1.88;75.12;96697.94;1769607;80;20958;-65
2022/02/22 01:37:11;;;;;;;18.75;12.35;;;;;;;1.87;75.25;96697.66;1769739;80;20912;-65
2022/02/22 01:39:38;;;;;;;18.40;11.10;;;;;;;1.86;75.35;96698.73;1769664;81;21057;-61
2022/02/22 01:42:05;;;;;;;16.10;11.43;;;;;;;1.82;75.44;96697.66;1770001;81;20911;-63
2022/02/22 01:44:31;;;;;;;17.25;10.00;;;;;;;1.77;75.65;96697.66;1769713;81;20869;-63
2022/02/22 01:47:03;;;;;;;10.15;7.37;;;;;;;1.78;75.81;96704.53;1769689;81;20967;-66
2022/02/22 01:49:32;;;;;;;10.10;7.45;;;;;;;1.72;75.93;96698.45;1769638;81;20931;-62
2022/02/22 01:52:01;;;;;;;13.13;7.40;;;;;;;1.67;76.12;96685.25;1769845;81;21145;-62
2022/02/22 01:54:28;;;;;;;10.00;6.15;;;;;;;1.61;76.38;96692.92;1752741;81;20919;-66
2022/02/22 01:56:55;;;;;;;10.65;5.60;;;;;;;1.63;76.55;96692.65;1769867;80;20877;-62
2022/02/22 01:59:22;;;;;;;10.85;6.55;;;;;;;1.63;76.56;96687.38;1769810;81;20935;-62
2022/02/22 02:01:48;;;;;;;10.28;6.08;;;;;;;1.61;76.73;96693.45;1769885;81;21446;-64
2022/02/22 02:04:15;;;;;;;9.68;5.97;;;;;;;1.58;76.89;96687.40;1769894;80;21107;-65
2022/02/22 02:06:42;;;;;;;10.55;6.10;;;;;;;1.55;77.00;96687.91;1769680;81;20915;-62
2022/02/22 02:09:10;;;;;;;9.08;5.75;;;;;;;1.52;77.08;96685.80;1769834;80;20939;-63
2022/02/22 02:11:48;;;;;;;8.63;5.35;;;;;;;1.51;77.21;96684.23;1770017;80;20979;-62
2022/02/22 02:14:15;;;;;;;8.48;5.55;;;;;;;1.47;77.23;96693.70;1769933;80;20923;-62
2022/02/22 02:16:42;;;;;;;10.18;5.50;;;;;;;1.43;77.35;96691.34;1750259;81;22254;-68
2022/02/22 02:19:11;;;;;;;9.65;5.30;;;;;;;1.41;77.48;96690.81;1748186;81;21437;-64
2022/02/22 02:21:38;;;;;;;8.80;5.65;;;;;;;1.37;77.55;96697.92;1748039;81;20971;-65
2022/02/22 02:24:22;;;;;;;9.13;5.83;;;;;;;1.31;77.63;96699.51;1748125;82;21401;-66
2022/02/22 02:26:50;;;;;;;10.60;6.55;;;;;;;1.27;77.87;96696.59;1747286;82;20956;-62
2022/02/22 02:29:19;;;;;;;9.60;6.50;;;;;;;1.24;78.02;96695.81;1748128;82;21495;-65
2022/02/22 02:31:46;;;;;;;9.00;6.37;;;;;;;1.21;78.11;96697.65;1748046;82;21150;-62
2022/02/22 02:34:16;;;;;;;9.88;6.87;;;;;;;1.11;78.30;96695.50;1748057;81;21437;-61
2022/02/22 02:36:43;;;;;;;12.93;6.50;;;;;;;1.06;78.53;96693.66;1748036;82;21028;-62
2022/02/22 02:39:14;;;;;;;14.95;9.18;;;;;;;1.06;78.77;96692.33;1748047;81;20956;-66
2022/02/22 02:41:42;;;;;;;14.58;8.93;;;;;;;1.05;78.83;96696.05;1747951;82;21153;-61
2022/02/22 02:44:11;;;;;;;14.75;8.63;;;;;;;1.02;79.02;96698.39;1747864;82;20877;-64
2022/02/22 02:46:39;;;;;;;14.98;9.53;;;;;;;1.00;79.13;96698.66;1747935;81;21480;-64
2022/02/22 02:49:07;;;;;;;16.35;10.43;;;;;;;1.01;79.35;96708.17;1747916;81;21015;-64
2022/02/22 02:51:34;;;;;;;21.95;14.28;;;;;;;1.05;79.37;96709.23;1748047;82;20877;-64
2022/02/22 02:54:00;;;;;;;26.85;19.52;;;;;;;1.06;79.31;96712.66;1748038;81;21202;-66
2022/02/22 02:56:27;;;;;;;22.60;16.25;;;;;;;1.01;79.39;96716.08;1748046;82;20932;-65
2022/02/22 02:59:00;;;;;;;18.42;13.03;;;;;;;0.98;79.46;96714.47;1747981;82;20869;-65
2022/02/22 03:01:29;;;;;;;17.20;10.70;;;;;;;0.97;79.58;96718.95;1748008;81;20987;-62
2022/02/22 03:03:56;;;;;;;13.53;9.95;;;;;;;;;;1748106;82;21014;-66
2022/02/22 03:06:23;;;;;;;15.23;10.38;;;;;;;0.98;79.76;96717.11;1748235;81;21751;-66
2022/02/22 03:08:50;;;;;;;13.08;8.25;;;;;;;0.97;79.83;96717.63;1747961;82;20893;-61
2022/02/22 03:11:16;;;;;;;11.50;8.20;;;;;;;1.00;79.90;96710.53;1748171;81;21011;-63
2022/02/22 03:13:43;;;;;;;14.25;8.53;;;;;;;1.06;79.92;96713.43;1747929;81;20909;-65
2022/02/22 03:16:09;;;;;;;14.10;9.30;;;;;;;1.12;79.86;96720.31;1748098;81;20901;-64
2022/02/22 03:18:36;;;;;;;13.53;8.53;;;;;;;1.14;79.83;96720.84;1747958;82;21042;-65
2022/02/22 03:21:04;;;;;;;9.18;6.70;;;;;;;1.16;79.83;96720.05;1747853;82;20877;-64
2022/02/22 03:23:31;;;;;;;12.98;7.50;;;;;;;1.21;79.78;96724.03;1747986;82;20928;-62
2022/02/22 03:25:58;;;;;;;11.20;7.60;;;;;;;1.26;79.76;96730.63;1748001;82;21452;-62
2022/02/22 03:28:24;;;;;;;12.15;7.40;;;;;;;1.32;79.67;96740.13;1748026;82;20917;-64
2022/02/22 03:30:51;;;;;;;12.53;7.67;;;;;;;1.34;79.60;96738.02;1748015;82;21172;-62
2022/02/22 03:33:18;;;;;;;12.10;7.12;;;;;;;1.37;79.53;96732.75;1747937;82;20921;-62
2022/02/22 03:35:44;;;;;;;14.28;8.28;;;;;;;1.36;79.46;96733.30;1748010;82;20929;-63
2022/02/22 03:38:11;;;;;;;16.05;8.88;;;;;;;1.40;79.35;96734.88;1748033;82;20925;-62
2022/02/22 03:40:37;;;;;;;14.50;10.05;;;;;;;1.41;79.24;96731.19;1748029;82;20901;-63
2022/02/22 03:43:04;;;;;;;14.93;9.60;;;;;;;1.41;79.17;96735.67;1748007;82;21081;-67
2022/02/22 03:45:31;;;;;;;13.08;8.60;;;;;;;1.38;79.14;96736.46;1747814;82;20924;-62
2022/02/22 03:47:58;;;;;;;18.05;9.35;;;;;;;1.34;79.04;96739.33;1747894;82;20971;-66
2022/02/22 03:50:25;;;;;;;18.20;10.95;;;;;;;1.30;79.00;96740.92;1747967;81;20889;-65
2022/02/22 03:52:53;;;;;;;18.37;11.48;;;;;;;1.25;78.98;96748.82;1747975;81;20861;-64
2022/02/22 03:55:20;;;;;;;17.65;9.45;;;;;;;1.24;79.03;96756.48;1748266;81;21090;-64
2022/02/22 03:57:47;;;;;;;20.10;10.75;;;;;;;1.24;78.96;96756.48;1747916;82;20933;-64
2022/02/22 04:00:19;;;;;;;14.18;9.10;;;;;;;1.20;78.99;96754.08;1747950;81;20889;-63
2022/02/22 04:02:46;;;;;;;15.08;9.20;;;;;;;1.20;78.97;96750.12;1747977;82;20846;-62
2022/02/22 04:05:14;;;;;;;15.20;8.58;;;;;;;1.19;78.94;96752.52;1748346;82;20873;-64
2022/02/22 04:07:40;;;;;;;14.38;7.58;;;;;;;1.17;78.97;96756.46;1747980;82;21710;-62
2022/02/22 04:10:09;;;;;;;11.15;7.42;;;;;;;1.12;78.93;96746.69;1747813;81;20925;-62
2022/02/22 04:12:37;;;;;;;12.88;8.18;;;;;;;1.08;78.88;96750.91;1747849;81;20952;-63
2022/02/22 04:15:07;;;;;;;11.60;8.00;;;;;;;1.07;78.99;96751.15;1747845;82;21393;-64
2022/02/22 04:17:34;;;;;;;14.80;8.58;;;;;;;1.05;78.91;96748.78;1747926;82;20920;-62
2022/02/22 04:20:01;;;;;;;12.28;8.10;;;;;;;1.04;79.02;96755.09;1748060;81;21515;-61
2022/02/22 04:22:28;;;;;;;16.60;8.20;;;;;;;1.01;79.12;96755.63;1747788;82;21432;-62
2022/02/22 04:24:55;;;;;;;15.95;9.13;;;;;;;1.02;79.15;96755.88;1747977;82;20877;-62
2022/02/22 04:27:22;;;;;;;17.92;10.30;;;;;;;1.01;79.16;96758.27;1748187;82;20901;-62
2022/02/22 04:29:48;;;;;;;21.62;12.33;;;;;;;0.99;79.06;96759.03;1747989;82;21472;-63
2022/02/22 04:32:15;;;;;;;16.52;9.53;;;;;;;1.03;78.83;96746.14;1748231;81;21067;-65
2022/02/22 04:34:41;;;;;;;18.15;10.38;;;;;;;1.05;78.71;96755.38;1747898;82;20914;-64
2022/02/22 04:37:13;;;;;;;15.75;9.15;;;;;;;1.12;78.40;96754.60;1747951;82;20920;-64
2022/02/22 04:39:36;;;;;;;12.07;7.67;;;;;;;1.14;78.08;96747.22;1747751;82;21547;-64
2022/02/22 04:42:04;;;;;;;13.62;8.40;;;;;;;1.16;77.81;96746.95;1748499;81;20912;-62
2022/02/22 04:44:31;;;;;;;14.73;7.40;;;;;;;1.20;77.44;96740.89;1747849;82;21440;-63
2022/02/22 04:46:57;;;;;;;12.73;7.17;;;;;;;1.26;77.12;96751.73;1748068;82;20940;-61
2022/02/22 04:49:24;;;;;;;15.23;7.92;;;;;;;1.30;76.79;96748.83;1747942;82;20842;-62
2022/02/22 04:51:50;;;;;;;16.30;8.20;;;;;;;1.34;76.41;96749.12;1748191;82;20892;-62
2022/02/22 04:54:17;;;;;;;13.28;7.28;;;;;;;1.38;76.23;96747.53;1748073;81;21444;-62
2022/02/22 04:56:44;;;;;;;16.90;10.25;;;;;;;1.43;75.79;96749.39;1747945;82;21162;-65
2022/02/22 04:59:12;;;;;;;26.55;13.93;;;;;;;1.44;75.61;96749.66;1747852;81;21341;-67
2022/02/22 05:01:39;;;;;;;25.08;13.35;;;;;;;1.48;75.21;96756.00;1748105;82;20925;-63
2022/02/22 05:04:05;;;;;;;22.15;13.43;;;;;;;1.49;74.96;96749.65;1748037;81;21421;-63
2022/02/22 05:06:33;;;;;;;27.95;15.55;;;;;;;1.49;74.83;96747.01;1748095;81;21437;-65
2022/02/22 05:08:59;;;;;;;36.77;22.32;;;;;;;1.51;74.70;96748.88;1748218;81;21082;-66
2022/02/22 05:11:26;;;;;;;47.53;28.05;;;;;;;1.49;74.60;96754.92;1747839;82;21338;-65
2022/02/22 05:13:52;;;;;;;43.80;28.38;;;;;;;1.47;74.39;96758.36;1748178;81;21429;-64
2022/02/22 05:16:19;;;;;;;27.52;16.50;;;;;;;1.42;74.42;96757.83;1747925;82;20972;-61
2022/02/22 05:18:45;;;;;;;23.45;16.65;;;;;;;1.43;74.24;96767.86;1748104;82;20858;-61
2022/02/22 05:21:12;;;;;;;58.58;36.77;;;;;;;1.40;74.04;96759.94;1747819;82;21444;-64
2022/02/22 05:23:38;;;;;;;49.25;35.05;;;;;;;1.38;73.96;96774.72;1747865;82;20889;-66
2022/02/22 05:26:06;;;;;;;28.15;20.65;;;;;;;1.38;73.86;96766.00;1748068;82;20849;-65
2022/02/22 05:28:33;;;;;;;26.20;18.48;;;;;;;1.39;72.78;96771.01;1748050;82;20932;-67
2022/02/22 05:31:00;;;;;;;21.77;15.20;;;;;;;1.48;72.87;96771.83;1748093;82;21562;-66
2022/02/22 05:33:27;;;;;;;28.77;19.50;;;;;;;1.49;72.91;96763.64;1748277;82;21423;-64
2022/02/22 05:35:54;;;;;;;31.70;22.98;;;;;;;1.49;72.83;96772.08;1748379;82;20881;-67
2022/02/22 05:38:21;;;;;;;22.48;16.35;;;;;;;1.48;72.95;96777.11;1748010;81;21531;-67
2022/02/22 05:40:47;;;;;;;16.05;9.13;;;;;;;1.49;72.84;96778.16;1748042;81;20987;-63
2022/02/22 05:43:14;;;;;;;18.05;10.93;;;;;;;1.50;72.70;96774.99;1748061;82;20881;-63
2022/02/22 05:45:41;;;;;;;30.57;18.57;;;;;;;1.53;72.61;96781.08;1747959;81;20951;-64
2022/02/22 05:48:07;;;;;;;20.25;12.93;;;;;;;1.55;72.39;96790.84;1748181;81;21436;-62
2022/02/22 05:50:34;;;;;;;12.80;7.58;;;;;;;1.56;72.40;96785.81;1748073;81;20853;-62
2022/02/22 05:53:00;;;;;;;13.60;7.65;;;;;;;1.60;72.25;96792.94;1748036;82;20984;-65
2022/02/22 05:55:27;;;;;;;14.30;7.15;;;;;;;1.67;71.83;96793.48;1748258;81;20988;-65
2022/02/22 05:57:54;;;;;;;9.15;6.20;;;;;;;1.78;70.64;96797.73;1747950;82;21121;-65
2022/02/22 06:00:22;;;;;;;8.55;4.25;;;;;;;1.93;70.50;96800.92;1747895;81;21001;-65
2022/02/22 06:02:49;;;;;;;7.42;3.95;;;;;;;2.08;69.56;96804.87;1748087;81;20885;-67
2022/02/22 06:05:15;;;;;;;5.70;2.58;;;;;;;2.26;69.20;96806.20;1748277;82;21478;-67
2022/02/22 06:07:42;;;;;;;5.05;2.80;;;;;;;2.40;67.09;96802.72;1739134;82;20982;-62
2022/02/22 06:10:09;;;;;;;5.70;2.65;;;;;;;2.60;66.30;96803.22;1732591;82;21102;-65
2022/02/22 06:12:35;;;;;;;4.45;2.72;;;;;;;2.78;65.87;96816.66;1737500;82;20843;-59
2022/02/22 06:15:05;;;;;;;5.72;3.15;;;;;;;2.92;64.82;96817.44;1747766;81;21535;-60
2022/02/22 06:17:41;;;;;;;4.90;2.67;;;;;;;3.06;64.13;96815.80;1778342;80;20980;-61
2022/02/22 06:20:10;;;;;;;5.15;2.75;;;;;;;3.20;62.58;96826.83;1731799;82;20951;-61
2022/02/22 06:22:37;;;;;;;4.45;2.47;;;;;;;3.35;62.02;96824.66;1752683;80;21110;-63
2022/02/22 06:25:07;;;;;;;6.87;2.60;;;;;;;3.47;61.68;96829.09;1779574;80;20977;-64
2022/02/22 06:27:46;;;;;;;6.72;2.80;;;;;;;3.58;61.11;96837.23;1781516;80;21074;-65
2022/02/22 06:30:12;;;;;;;4.08;2.70;;;;;;;3.68;60.35;96833.22;1750809;81;20934;-63
2022/02/22 06:32:39;;;;;;;6.40;3.02;;;;;;;3.76;59.74;96828.69;1762203;80;20930;-65
2022/02/22 06:35:07;;;;;;;4.55;2.83;;;;;;;3.85;59.60;96834.98;1776016;80;21748;-63
2022/02/22 06:37:34;;;;;;;6.28;2.42;;;;;;;3.91;59.30;96841.81;1767243;80;21362;-63
2022/02/22 06:40:01;;;;;;;4.58;2.77;;;;;;;4.00;58.99;96843.36;1774249;80;21024;-65
2022/02/22 06:42:28;;;;;;;3.62;2.37;;;;;;;4.08;59.12;96840.11;1773485;80;21034;-64
2022/02/22 06:44:54;;;;;;;3.83;2.50;;;;;;;4.15;58.77;96845.89;1760936;80;21076;-65
2022/02/22 06:47:21;;;;;;;10.75;5.90;;;;;;;4.22;58.50;96852.19;1771694;80;21489;-69
2022/02/22 06:49:47;;;;;;;5.97;3.05;;;;;;;4.29;59.00;96852.67;1771840;80;21088;-60
2022/02/22 06:52:14;;;;;;;7.70;4.10;;;;;;;4.36;58.58;96863.77;1767037;80;20977;-64
2022/02/22 06:54:40;;;;;;;5.90;3.02;;;;;;;4.42;58.81;96860.00;1769463;80;21033;-62
2022/02/22 06:57:07;;;;;;;37.05;22.52;;;;;;;4.52;58.59;96870.53;1769607;80;21085;-62
2022/02/22 06:59:34;;;;;;;8.85;4.62;;;;;;;4.57;58.87;96868.61;1766463;80;21635;-62
2022/02/22 07:02:01;;;;;;;5.10;3.00;;;;;;;4.64;59.02;96869.63;1765523;80;21493;-65
2022/02/22 07:04:28;;;;;;;4.05;2.87;;;;;;;4.71;58.14;96872.75;1749347;81;21734;-63
2022/02/22 07:06:54;;;;;;;5.70;3.62;;;;;;;4.77;58.15;96872.95;1747339;81;21567;-64
2022/02/22 07:09:21;;;;;;;4.85;2.60;;;;;;;4.82;58.40;96866.27;1762198;81;21032;-63
2022/02/22 07:11:49;;;;;;;5.50;2.90;;;;;;;4.88;57.41;96873.09;1753189;81;21119;-66
2022/02/22 07:14:16;;;;;;;5.67;2.87;;;;;;;4.94;57.29;96888.45;1757230;80;21561;-64
2022/02/22 07:16:43;;;;;;;4.78;2.52;;;;;;;4.98;57.34;96889.45;1771647;80;21057;-62
2022/02/22 07:19:09;;;;;;;7.00;2.90;;;;;;;5.01;57.81;96889.70;1765275;81;21553;-62
2022/02/22 07:21:36;;;;;;;4.12;2.67;;;;;;;5.06;57.44;96890.19;1763995;81;21081;-57
2022/02/22 07:24:04;;;;;;;6.70;3.15;;;;;;;5.14;57.64;96894.33;1758428;81;21126;-66
2022/02/22 07:26:31;;;;;;;4.10;2.90;;;;;;;5.21;57.55;96886.03;1758404;81;21013;-60
2022/02/22 07:28:59;;;;;;;6.05;3.10;;;;;;;5.27;56.95;96889.70;1764341;81;32622;-67
2022/02/22 07:31:25;;;;;;;5.67;2.65;;;;;;;5.33;57.37;96894.39;1760486;81;21015;-68
2022/02/22 07:33:52;;;;;;;4.45;2.90;;;;;;;5.37;57.42;96896.76;1770506;80;21477;-66
2022/02/22 07:36:19;;;;;;;7.55;3.80;;;;;;;5.39;57.09;96895.38;1770011;80;21171;-64
2022/02/22 07:38:45;;;;;;;6.28;3.42;;;;;;;5.43;57.62;96901.72;1750278;81;21091;-65
2022/02/22 07:41:11;;;;;;;4.60;2.70;;;;;;;5.50;57.92;96908.81;1748714;81;21116;-64
2022/02/22 07:43:38;;;;;;;3.67;2.42;;;;;;;5.60;57.51;96912.42;1764190;80;20949;-64
2022/02/22 07:46:04;;;;;;;4.45;2.50;;;;;;;5.63;57.12;96923.81;1756136;81;21415;-70
2022/02/22 07:48:33;;;;;;;3.72;2.27;;;;;;;5.65;56.91;96917.14;1760640;80;21523;-70
2022/02/22 07:51:00;;;;;;;3.90;2.55;;;;;;;5.67;57.40;96923.48;1756739;80;21120;-67
2022/02/22 07:53:26;;;;;;;4.30;3.17;;;;;;;5.72;56.90;96947.34;1758621;80;20974;-66
2022/02/22 07:55:53;;;;;;;4.28;2.90;;;;;;;5.74;57.04;96938.02;1755883;81;20985;-64
2022/02/22 07:58:20;;;;;;;6.03;2.70;;;;;;;5.79;57.64;96932.64;1760912;81;21065;-67
2022/02/22 08:00:47;;;;;;;5.47;2.65;;;;;;;5.88;57.46;96940.80;1751907;81;21126;-64
2022/02/22 08:03:14;;;;;;;4.58;2.60;;;;;;;5.94;57.23;96937.78;1761704;81;20969;-65
2022/02/22 08:05:41;;;;;;;5.37;3.22;;;;;;;6.02;56.52;96927.05;1763888;81;21106;-64
2022/02/22 08:08:09;;;;;;;4.75;2.80;;;;;;;6.03;57.41;96936.06;1763832;81;21071;-63
2022/02/22 08:10:38;;;;;;;4.90;3.08;;;;;;;6.04;56.64;96943.50;1765136;81;21107;-64
2022/02/22 08:13:04;;;;;;;6.30;3.02;;;;;;;6.03;58.13;96944.03;1767857;81;22243;-65
2022/02/22 08:15:32;;;;;;;3.65;2.62;;;;;;;6.05;57.62;96949.09;1767637;81;21011;-65
2022/02/22 08:17:59;;;;;;;5.95;3.40;;;;;;;6.05;57.83;96964.47;1715724;81;20993;-62
2022/02/22 08:20:25;;;;;;;5.05;3.37;;;;;;;6.04;57.38;96951.48;1744615;81;21974;-63
2022/02/22 08:22:53;;;;;;;5.95;3.02;;;;;;;6.04;57.44;96972.75;1775483;80;21107;-60
2022/02/22 08:25:20;;;;;;;6.35;3.55;;;;;;;6.05;57.97;96965.04;1740584;81;21127;-68
2022/02/22 08:27:47;;;;;;;6.65;3.12;;;;;;;6.05;57.67;96965.04;1754477;81;21068;-66
2022/02/22 08:30:14;;;;;;;7.22;3.80;;;;;;;6.03;58.07;96977.27;1743705;81;20867;-63
2022/02/22 08:32:42;;;;;;;6.10;3.70;;;;;;;6.08;58.50;96983.05;1733414;81;20942;-62
2022/02/22 08:35:09;;;;;;;7.03;3.72;;;;;;;6.13;58.32;96981.13;1749920;81;21016;-66
2022/02/22 08:37:36;;;;;;;4.72;3.50;;;;;;;6.17;58.59;96976.05;1754400;81;21106;-64
2022/02/22 08:40:05;;;;;;;8.15;3.67;;;;;;;6.15;58.53;96971.53;1754114;81;20982;-64
2022/02/22 08:42:32;;;;;;;6.05;3.55;;;;;;;6.14;58.65;96977.41;1748126;81;21408;-63
2022/02/22 08:44:58;;;;;;;5.87;3.33;;;;;;;6.22;58.60;96974.63;1751970;81;21113;-65
2022/02/22 08:47:24;;;;;;;7.67;3.83;;;;;;;6.22;58.61;96979.94;1760963;80;21519;-66
2022/02/22 08:49:51;;;;;;;6.75;3.40;;;;;;;6.22;58.85;96975.95;1759142;81;21094;-66
2022/02/22 08:52:18;;;;;;;5.67;3.50;;;;;;;6.18;59.35;96977.61;1740338;81;21097;-70
2022/02/22 08:54:46;;;;;;;7.25;4.20;;;;;;;6.16;58.98;96985.89;1758559;81;21041;-70
2022/02/22 08:57:13;;;;;;;6.35;4.12;;;;;;;6.10;59.20;96993.66;1734823;82;21064;-67
2022/02/22 08:59:39;;;;;;;5.95;3.90;;;;;;;6.04;59.52;96996.67;1746040;82;21135;-68
2022/02/22 09:02:07;;;;;;;6.22;4.03;;;;;;;6.02;60.19;96985.53;1772522;80;21698;-67
2022/02/22 09:04:34;;;;;;;6.92;4.30;;;;;;;6.06;60.09;96996.64;1746277;81;20934;-62
2022/02/22 09:07:01;;;;;;;8.30;4.12;;;;;;;6.14;60.13;97003.20;1751325;81;21539;-62
2022/02/22 09:09:28;;;;;;;6.50;3.98;;;;;;;6.23;60.28;96990.05;1754162;81;21532;-64
2022/02/22 09:11:56;;;;;;;7.78;4.33;;;;;;;6.37;59.94;96997.04;1748254;81;21073;-60
2022/02/22 09:14:23;;;;;;;6.40;4.15;;;;;;;6.54;60.14;96998.67;1746675;81;21107;-65
2022/02/22 09:16:50;;;;;;;8.60;4.62;;;;;;;6.75;59.38;96998.63;1747250;81;21020;-64
2022/02/22 09:19:16;;;;;;;9.45;4.40;;;;;;;6.83;58.74;97001.95;1728766;81;21066;-69
2022/02/22 09:21:43;;;;;;;8.18;4.50;;;;;;;6.82;59.23;96999.05;1739132;81;21050;-64
2022/02/22 09:24:10;;;;;;;7.90;4.53;;;;;;;6.98;59.42;97000.13;1724121;81;21501;-63
2022/02/22 09:26:36;;;;;;;7.70;4.08;;;;;;;7.16;59.53;97002.75;1720936;83;21246;-64
2022/02/22 09:29:03;;;;;;;7.05;4.12;;;;;;;7.34;58.78;97010.45;1720545;83;21438;-68
2022/02/22 09:31:30;;;;;;;7.83;4.53;;;;;;;7.41;58.65;97004.20;1717536;81;21013;-62
2022/02/22 09:33:58;;;;;;;8.60;3.47;;;;;;;7.42;58.86;97019.09;1722878;83;21062;-61
2022/02/22 09:36:47;;;;;;;4.78;2.85;;;;;;;7.26;58.45;97017.77;1722412;83;20919;-61
2022/02/22 09:39:29;;;;;;;4.42;2.72;;;;;;;7.04;58.22;97009.62;1714801;82;20907;-63
2022/02/22 09:42:10;;;;;;;6.80;3.00;;;;;;;6.90;59.15;97021.56;1704287;82;21479;-70
2022/02/22 09:44:38;;;;;;;7.25;3.20;;;;;;;6.92;58.91;97015.41;1711343;82;20888;-63
2022/02/22 09:47:05;;;;;;;6.28;3.20;;;;;;;6.86;58.29;97027.99;1725861;82;21045;-59
2022/02/22 09:49:33;;;;;;;5.30;3.52;;;;;;;6.78;59.23;97021.98;1722561;81;20971;-64
2022/02/22 09:51:59;;;;;;;8.63;3.83;;;;;;;6.69;58.95;97022.38;1723615;81;21094;-62
2022/02/22 09:54:27;;;;;;;8.05;3.10;;;;;;;6.57;59.44;97017.26;1714805;83;20939;-66
2022/02/22 09:56:56;;;;;;;7.85;3.22;;;;;;;6.46;59.36;97018.45;1724671;81;21010;-65
2022/02/22 09:59:24;;;;;;;5.28;3.30;;;;;;;6.36;59.63;97027.36;1706484;83;20951;-66
2022/02/22 10:01:55;;;;;;;5.67;3.50;;;;;;;6.31;59.92;97032.77;1727361;81;20943;-61
2022/02/22 10:04:23;;;;;;;7.08;3.52;;;;;;;6.30;60.43;97032.50;1710897;83;21696;-63
2022/02/22 10:06:50;;;;;;;7.22;3.77;;;;;;;6.42;60.65;97030.22;1726043;81;21502;-69
2022/02/22 10:09:17;;;;;;;5.60;3.40;;;;;;;6.56;60.15;97028.97;1730524;81;21139;-66
2022/02/22 10:11:47;;;;;;;6.62;3.60;;;;;;;6.58;59.78;97042.23;1714176;81;21043;-62
2022/02/22 10:14:23;;;;;;;6.92;3.70;;;;;;;6.48;59.60;97049.02;1701954;83;20867;-66
2022/02/22 10:16:53;;;;;;;8.23;4.03;;;;;;;6.31;59.72;97055.38;1713458;83;21106;-63
2022/02/22 10:19:23;;;;;;;6.58;3.92;;;;;;;6.16;60.35;97055.55;1753866;79;20933;-65
2022/02/22 10:22:04;;;;;;;8.68;4.78;;;;;;;6.11;60.85;97056.94;1742163;81;21069;-63
2022/02/22 10:24:40;;;;;;;7.67;3.95;;;;;;;6.11;61.59;97064.91;1755972;81;21105;-64
2022/02/22 10:27:09;;;;;;;5.50;3.42;;;;;;;6.14;61.43;97059.03;1742153;81;20998;-65
2022/02/22 10:29:37;;;;;;;5.35;3.02;;;;;;;6.17;60.40;97065.13;1760224;80;21301;-62
2022/02/22 10:32:14;;;;;;;6.03;3.70;;;;;;;6.10;59.80;97069.98;1772803;80;20937;-65
2022/02/22 10:34:41;;;;;;;5.60;3.12;;;;;;;6.00;60.25;97076.73;1760171;80;21008;-67
2022/02/22 10:37:08;;;;;;;6.90;3.50;;;;;;;5.88;60.71;97081.65;1752782;80;21024;-66
2022/02/22 10:39:36;;;;;;;5.47;3.62;;;;;;;5.73;60.67;97077.24;1761604;80;21049;-64
2022/02/22 10:42:04;;;;;;;6.37;3.58;;;;;;;5.68;61.33;97076.48;1772370;79;21122;-68
2022/02/22 10:44:36;;;;;;;6.42;3.50;;;;;;;5.63;61.63;97086.63;1772881;79;21510;-65
2022/02/22 10:47:18;;;;;;;7.15;3.25;;;;;;;5.58;62.10;97080.06;1751609;80;21059;-66
2022/02/22 10:49:47;;;;;;;4.28;2.70;;;;;;;5.54;62.13;97096.28;1737521;81;21514;-63
2022/02/22 10:52:15;;;;;;;6.17;2.92;;;;;;;5.49;61.77;97093.14;1737810;82;21707;-65
2022/02/22 10:54:42;;;;;;;4.60;2.40;;;;;;;5.51;62.38;97088.33;1760614;81;21123;-63
2022/02/22 10:57:09;;;;;;;5.72;2.60;;;;;;;5.58;61.78;97091.22;1769809;80;20928;-60
2022/02/22 10:59:36;;;;;;;4.53;2.50;;;;;;;5.65;62.07;97100.98;1778048;79;20876;-66
2022/02/22 11:02:04;;;;;;;6.08;2.72;;;;;;;5.69;61.23;97098.02;1761572;79;21515;-64
2022/02/22 11:04:31;;;;;;;4.50;2.65;;;;;;;5.71;61.32;97107.83;1779991;79;21058;-69
2022/02/22 11:06:58;;;;;;;5.90;2.65;;;;;;;5.81;61.26;97113.05;1772092;79;21552;-61
2022/02/22 11:09:37;;;;;;;4.90;2.87;;;;;;;5.84;60.47;97103.20;1768710;79;21046;-61
2022/02/22 11:12:25;;;;;;;4.65;3.10;;;;;;;5.85;60.64;97101.61;1684072;85;21034;-59
2022/02/22 11:15:05;;;;;;;6.62;2.98;;;;;;;5.88;61.01;97101.05;1747450;79;21125;-61
2022/02/22 11:17:33;;;;;;;3.77;2.72;;;;;;;5.90;59.88;97106.08;1769450;79;21101;-65
2022/02/22 11:20:00;;;;;;;6.17;2.83;;;;;;;5.80;59.97;97108.80;1703879;80;21545;-61
2022/02/22 11:22:32;;;;;;;4.60;2.87;;;;;;;5.73;60.12;97118.95;1786916;80;21018;-65
2022/02/22 11:25:00;;;;;;;6.37;3.37;;;;;;;5.70;60.02;97116.32;1787989;80;21529;-61
2022/02/22 11:27:31;;;;;;;5.35;3.22;;;;;;;5.79;60.11;97117.86;1732543;80;21014;-62
2022/02/22 11:30:07;;;;;;;3.47;2.75;;;;;;;5.91;59.82;97119.08;1756651;80;20911;-61
2022/02/22 11:32:36;;;;;;;5.45;2.80;;;;;;;5.98;59.57;97119.53;1756751;81;21792;-65
2022/02/22 11:35:12;;;;;;;4.55;2.85;;;;;;;6.06;58.85;97118.93;1756453;81;20986;-61
2022/02/22 11:37:39;;;;;;;11.50;3.17;;;;;;;6.10;58.82;97117.84;1758332;80;21430;-64
2022/02/22 11:40:08;;;;;;;6.55;2.98;;;;;;;6.06;58.98;97118.93;1736830;81;20896;-62
2022/02/22 11:42:37;;;;;;;4.85;2.80;;;;;;;6.06;59.35;97120.80;1734423;80;20962;-63